createdAt,value
2023-05-09T00:02:22.460Z,12.17
2023-05-09T00:04:51.612Z,12.32
2023-05-09T00:07:20.026Z,11.83
2023-05-09T00:09:48.339Z,11.82
2023-05-09T00:12:18.365Z,11.92
2023-05-09T00:14:48.254Z,11.84
2023-05-09T00:17:19.296Z,11.72
2023-05-09T00:19:47.841Z,12.10
2023-05-09T00:22:17.075Z,11.92
2023-05-09T00:24:45.655Z,11.77
2023-05-09T00:27:13.962Z,11.88
2023-05-09T00:29:43.698Z,11.86
2023-05-09T00:32:12.654Z,11.71
2023-05-09T00:34:41.144Z,11.58
2023-05-09T00:37:09.645Z,11.35
2023-05-09T00:39:38.254Z,11.02
2023-05-09T00:42:06.669Z,11.05
2023-05-09T00:44:35.060Z,10.92
2023-05-09T00:47:05.115Z,11.03
2023-05-09T00:49:33.565Z,11.31
2023-05-09T00:52:02.258Z,11.56
2023-05-09T00:54:30.884Z,11.62
2023-05-09T00:57:00.467Z,11.69
2023-05-09T00:59:28.896Z,11.93
2023-05-09T01:01:57.521Z,12.19
2023-05-09T01:04:27.201Z,11.67
2023-05-09T01:06:57.436Z,11.86
2023-05-09T01:09:26.489Z,11.65
2023-05-09T01:11:56.644Z,10.75
2023-05-09T01:14:26.812Z,10.95
2023-05-09T01:16:57.235Z,10.89
2023-05-09T01:19:41.059Z,11.05
2023-05-09T01:22:10.164Z,10.89
2023-05-09T01:24:45.953Z,10.92
2023-05-09T01:27:18.932Z,11.43
2023-05-09T01:29:48.990Z,10.78
2023-05-09T01:32:19.244Z,10.97
2023-05-09T01:34:48.211Z,10.67
2023-05-09T01:37:16.886Z,10.91
2023-05-09T01:39:46.464Z,11.08
2023-05-09T01:42:14.850Z,11.14
2023-05-09T01:44:44.135Z,10.56
2023-05-09T01:47:16.382Z,10.79
2023-05-09T01:49:44.846Z,11.12
2023-05-09T01:52:14.873Z,11.17
2023-05-09T01:54:43.171Z,10.97
2023-05-09T01:57:11.676Z,10.71
2023-05-09T01:59:41.144Z,11.07
2023-05-09T02:02:09.566Z,10.26
2023-05-09T02:04:39.586Z,10.89
2023-05-09T02:07:08.176Z,10.85
2023-05-09T02:09:36.582Z,10.88
2023-05-09T02:12:05.574Z,10.75
2023-05-09T02:14:33.896Z,11.06
2023-05-09T02:17:06.319Z,10.80
2023-05-09T02:19:35.574Z,11.28
2023-05-09T02:22:05.756Z,10.91
2023-05-09T02:24:35.089Z,10.74
2023-05-09T02:27:07.146Z,10.72
2023-05-09T02:29:40.326Z,10.66
2023-05-09T02:32:09.615Z,10.78
2023-05-09T02:34:38.202Z,10.23
2023-05-09T02:37:07.946Z,10.75
2023-05-09T02:39:36.836Z,10.82
2023-05-09T02:42:07.028Z,11.35
2023-05-09T02:44:35.570Z,10.78
2023-05-09T02:47:04.179Z,11.02
2023-05-09T02:49:32.901Z,11.33
2023-05-09T02:52:01.750Z,11.24
2023-05-09T02:54:31.872Z,11.26
2023-05-09T02:57:00.522Z,11.39
2023-05-09T02:59:29.765Z,11.29
2023-05-09T03:01:59.333Z,11.06
2023-05-09T03:04:27.753Z,11.11
2023-05-09T03:06:56.365Z,11.27
2023-05-09T03:09:25.763Z,10.97
2023-05-09T03:11:56.213Z,11.07
2023-05-09T03:14:24.920Z,11.39
2023-05-09T03:16:53.432Z,10.89
2023-05-09T03:19:22.199Z,10.82
2023-05-09T03:21:50.886Z,11.06
2023-05-09T03:24:19.561Z,11.12
2023-05-09T03:26:47.914Z,10.98
2023-05-09T03:29:17.923Z,11.03
2023-05-09T03:31:46.320Z,11.00
2023-05-09T03:34:15.396Z,10.91
2023-05-09T03:36:44.654Z,10.43
2023-05-09T03:39:13.532Z,10.53
2023-05-09T03:41:43.652Z,10.76
2023-05-09T03:44:12.616Z,10.42
2023-05-09T03:46:42.548Z,9.74
2023-05-09T03:49:11.168Z,10.08
2023-05-09T03:51:41.912Z,10.25
2023-05-09T03:54:10.865Z,10.56
2023-05-09T03:56:39.231Z,9.95
2023-05-09T03:59:07.921Z,9.57
2023-05-09T04:01:38.284Z,9.54
2023-05-09T04:04:10.740Z,9.53
2023-05-09T04:06:39.362Z,9.47
2023-05-09T04:09:07.981Z,9.32
2023-05-09T04:11:38.849Z,9.22
2023-05-09T04:14:08.051Z,9.72
2023-05-09T04:16:37.052Z,9.96
2023-05-09T04:19:07.202Z,10.33
2023-05-09T04:21:38.065Z,10.42
2023-05-09T04:24:07.289Z,10.01
2023-05-09T04:26:38.471Z,10.38
2023-05-09T04:29:07.640Z,10.50
2023-05-09T04:31:36.236Z,10.91
2023-05-09T04:34:04.776Z,11.42
2023-05-09T04:36:33.920Z,11.67
2023-05-09T04:39:05.171Z,11.85
2023-05-09T04:41:34.150Z,12.70
2023-05-09T04:44:03.328Z,12.46
2023-05-09T04:46:31.650Z,14.10
2023-05-09T04:49:00.228Z,14.60
2023-05-09T04:51:28.605Z,14.71
2023-05-09T04:53:56.923Z,15.17
2023-05-09T04:56:29.533Z,14.49
2023-05-09T04:58:58.548Z,15.53
2023-05-09T05:01:27.245Z,15.04
2023-05-09T05:03:56.199Z,16.38
2023-05-09T05:06:24.606Z,15.55
2023-05-09T05:08:53.201Z,16.29
2023-05-09T05:11:21.823Z,16.78
2023-05-09T05:13:51.748Z,15.54
2023-05-09T05:16:20.426Z,16.12
2023-05-09T05:18:48.993Z,15.50
2023-05-09T05:21:17.567Z,15.73
2023-05-09T05:23:46.726Z,15.28
2023-05-09T05:26:15.362Z,14.73
2023-05-09T05:28:43.855Z,14.68
2023-05-09T05:31:14.105Z,14.58
2023-05-09T05:33:42.447Z,14.24
2023-05-09T05:36:10.885Z,14.28
2023-05-09T05:38:39.497Z,14.11
2023-05-09T05:41:11.237Z,13.74
2023-05-09T05:43:40.294Z,13.21
2023-05-09T05:46:08.872Z,13.08
2023-05-09T05:48:38.678Z,14.06
2023-05-09T05:51:07.297Z,13.59
2023-05-09T05:53:36.625Z,13.51
2023-05-09T05:56:05.784Z,13.78
2023-05-09T05:58:34.577Z,13.80
2023-05-09T06:01:03.639Z,13.08
2023-05-09T06:03:32.488Z,13.23
2023-05-09T06:06:02.699Z,12.71
2023-05-09T06:08:31.083Z,12.41
2023-05-09T06:11:01.478Z,12.65
2023-05-09T06:13:29.890Z,13.13
2023-05-09T06:16:07.867Z,12.78
2023-05-09T06:18:40.330Z,12.72
2023-05-09T06:21:12.335Z,12.86
2023-05-09T06:23:57.065Z,12.76
2023-05-09T06:26:29.679Z,13.20
2023-05-09T06:28:58.296Z,13.96
2023-05-09T06:31:26.954Z,13.02
2023-05-09T06:33:55.456Z,13.54
2023-05-09T06:36:25.432Z,13.37
2023-05-09T06:38:53.821Z,13.34
2023-05-09T06:41:22.553Z,13.19
2023-05-09T06:43:51.291Z,13.37
2023-05-09T06:46:19.856Z,14.01
2023-05-09T06:48:48.282Z,13.69
2023-05-09T06:51:17.003Z,13.41
2023-05-09T06:53:46.710Z,13.68
2023-05-09T06:56:15.067Z,13.53
2023-05-09T06:58:43.708Z,14.06
2023-05-09T07:01:12.057Z,13.95
2023-05-09T07:03:40.417Z,13.93
2023-05-09T07:06:09.128Z,13.19
2023-05-09T07:08:37.404Z,13.87
2023-05-09T07:11:07.175Z,14.00
2023-05-09T07:13:38.011Z,14.27
2023-05-09T07:16:06.676Z,14.52
2023-05-09T07:18:35.121Z,14.21
2023-05-09T07:21:03.832Z,13.99
2023-05-09T07:23:32.209Z,14.13
2023-05-09T07:26:04.230Z,14.65
2023-05-09T07:28:34.285Z,14.58
2023-05-09T07:31:03.379Z,14.90
2023-05-09T07:33:31.753Z,14.56
2023-05-09T07:36:00.398Z,14.80
2023-05-09T07:38:28.682Z,14.45
2023-05-09T07:40:56.990Z,14.37
2023-05-09T07:43:25.723Z,14.63
2023-05-09T07:45:55.428Z,14.25
2023-05-09T07:48:23.753Z,14.73
2023-05-09T07:50:52.282Z,15.02
2023-05-09T07:53:20.795Z,15.71
2023-05-09T07:55:52.928Z,15.47
2023-05-09T07:58:21.730Z,15.32
2023-05-09T08:00:50.054Z,14.96
2023-05-09T08:03:20.894Z,15.39
2023-05-09T08:05:49.303Z,15.03
2023-05-09T08:08:17.606Z,15.65
2023-05-09T08:10:46.197Z,16.33
2023-05-09T08:13:14.642Z,16.12
2023-05-09T08:15:43.209Z,16.02
2023-05-09T08:18:11.837Z,15.66
2023-05-09T08:20:41.835Z,16.03
2023-05-09T08:23:11.058Z,15.98
2023-05-09T08:25:39.709Z,16.12
2023-05-09T08:28:08.142Z,15.83
2023-05-09T08:30:36.486Z,15.97
2023-05-09T08:33:05.225Z,16.08
2023-05-09T08:35:33.511Z,16.57
2023-05-09T08:38:03.741Z,16.36
2023-05-09T08:40:32.407Z,16.59
2023-05-09T08:43:00.719Z,16.84
2023-05-09T08:45:29.068Z,16.82
2023-05-09T08:47:57.711Z,16.78
2023-05-09T08:50:26.076Z,16.19
2023-05-09T08:52:54.373Z,16.66
2023-05-09T08:55:27.698Z,16.66
2023-05-09T08:57:56.111Z,16.68
2023-05-09T09:00:24.668Z,17.02
2023-05-09T09:02:54.293Z,16.75
2023-05-09T09:05:39.958Z,17.42
2023-05-09T09:08:11.034Z,17.30
2023-05-09T09:10:42.250Z,17.47
2023-05-09T09:13:11.092Z,17.48
2023-05-09T09:15:39.577Z,17.28
2023-05-09T09:18:10.003Z,17.46
2023-05-09T09:20:39.610Z,17.61
2023-05-09T09:23:08.330Z,17.98
2023-05-09T09:25:36.618Z,18.24
2023-05-09T09:28:06.906Z,17.54
2023-05-09T09:30:35.227Z,17.95
2023-05-09T09:33:03.752Z,18.23
2023-05-09T09:35:32.709Z,18.31
2023-05-09T09:38:01.619Z,17.60
2023-05-09T09:40:29.958Z,17.98
2023-05-09T09:42:58.592Z,17.57
2023-05-09T09:45:28.353Z,18.19
2023-05-09T09:47:56.662Z,17.74
2023-05-09T09:50:25.595Z,17.58
2023-05-09T09:52:55.632Z,17.92
2023-05-09T09:55:24.657Z,18.26
2023-05-09T09:57:53.588Z,18.21
2023-05-09T10:00:26.141Z,17.83
2023-05-09T10:02:56.870Z,17.50
2023-05-09T10:05:25.864Z,18.03
2023-05-09T10:07:57.851Z,17.76
2023-05-09T10:10:27.507Z,18.23
2023-05-09T10:12:57.750Z,17.63
2023-05-09T10:15:33.478Z,17.51
2023-05-09T10:18:11.140Z,17.43
2023-05-09T10:20:43.349Z,17.98
2023-05-09T10:23:12.185Z,17.87
2023-05-09T10:25:41.546Z,18.09
2023-05-09T10:28:11.356Z,18.28
2023-05-09T10:30:42.721Z,18.98
2023-05-09T10:33:12.762Z,18.45
2023-05-09T10:35:41.770Z,18.82
2023-05-09T10:38:12.400Z,19.32
2023-05-09T10:40:41.230Z,19.31
2023-05-09T10:43:09.613Z,19.08
2023-05-09T10:45:38.601Z,18.64
2023-05-09T10:48:09.041Z,18.98
2023-05-09T10:50:40.489Z,19.47
2023-05-09T10:53:11.558Z,18.27
2023-05-09T10:55:40.933Z,18.85
2023-05-09T10:58:31.969Z,18.59
2023-05-09T11:01:00.748Z,18.76
2023-05-09T11:03:30.492Z,18.53
2023-05-09T11:06:00.474Z,18.38
2023-05-09T11:08:29.757Z,18.20
2023-05-09T11:11:00.250Z,18.32
2023-05-09T11:13:31.503Z,18.24
2023-05-09T11:16:21.545Z,19.07
2023-05-09T11:18:51.156Z,19.53
2023-05-09T11:21:23.441Z,19.09
2023-05-09T11:23:54.451Z,18.98
2023-05-09T11:26:24.553Z,19.32
2023-05-09T11:28:55.109Z,19.89
2023-05-09T11:31:25.915Z,20.18
2023-05-09T11:33:58.327Z,21.06
2023-05-09T11:36:33.391Z,20.40
2023-05-09T11:39:05.111Z,19.44
2023-05-09T11:41:39.408Z,20.34
2023-05-09T11:44:15.431Z,20.09
2023-05-09T11:46:43.750Z,20.09
2023-05-09T11:49:12.573Z,21.01
2023-05-09T11:51:42.674Z,20.75
2023-05-09T11:54:13.673Z,21.02
2023-05-09T11:56:42.378Z,20.32
2023-05-09T11:59:13.200Z,20.93
2023-05-09T12:01:42.571Z,21.17
2023-05-09T12:04:11.245Z,20.51
2023-05-09T12:06:39.582Z,20.55
2023-05-09T12:09:10.346Z,19.26
2023-05-09T12:11:39.781Z,19.89
2023-05-09T12:14:08.201Z,19.99
2023-05-09T12:16:36.600Z,21.18
2023-05-09T12:19:05.648Z,20.66
2023-05-09T12:21:33.986Z,20.42
2023-05-09T12:24:02.498Z,20.70
2023-05-09T12:26:32.492Z,20.64
2023-05-09T12:29:00.832Z,20.86
2023-05-09T12:31:29.302Z,20.43
2023-05-09T12:33:58.312Z,20.93
2023-05-09T12:36:27.423Z,21.39
2023-05-09T12:38:55.786Z,21.83
2023-05-09T12:43:57.105Z,21.12
2023-05-09T12:46:25.918Z,21.34
2023-05-09T12:48:55.159Z,21.68
2023-05-09T12:51:23.531Z,21.45
2023-05-09T12:53:52.508Z,22.06
2023-05-09T12:56:22.914Z,21.67
2023-05-09T12:58:52.202Z,21.38
2023-05-09T13:01:22.501Z,22.38
2023-05-09T13:03:54.216Z,22.43
2023-05-09T13:06:22.833Z,22.46
2023-05-09T13:08:58.863Z,21.57
2023-05-09T13:11:27.726Z,21.08
2023-05-09T13:13:56.072Z,21.16
2023-05-09T13:16:25.747Z,21.59
2023-05-09T13:18:54.322Z,21.83
2023-05-09T13:21:22.628Z,22.61
2023-05-09T13:23:52.093Z,23.42
2023-05-09T13:26:21.211Z,23.88
2023-05-09T13:28:49.718Z,23.18
2023-05-09T13:31:18.476Z,22.55
2023-05-09T13:33:50.852Z,22.78
2023-05-09T13:36:20.091Z,22.21
2023-05-09T13:38:48.610Z,21.41
2023-05-09T13:41:20.861Z,20.95
2023-05-09T13:43:49.570Z,21.30
2023-05-09T13:46:17.971Z,20.92
2023-05-09T13:48:47.728Z,21.64
2023-05-09T13:51:18.048Z,21.53
2023-05-09T13:53:46.434Z,21.46
2023-05-09T13:56:14.790Z,21.23
2023-05-09T13:58:43.401Z,20.81
2023-05-09T14:01:11.978Z,20.63
2023-05-09T14:03:40.633Z,20.83
2023-05-09T14:06:10.465Z,21.01
2023-05-09T14:08:40.269Z,21.96
2023-05-09T14:11:09.385Z,22.16
2023-05-09T14:13:38.045Z,21.86
2023-05-09T14:16:06.722Z,22.01
2023-05-09T14:18:35.543Z,22.04
2023-05-09T14:21:03.877Z,22.24
2023-05-09T14:23:32.247Z,21.76
2023-05-09T14:26:02.268Z,22.20
2023-05-09T14:28:30.565Z,22.19
2023-05-09T14:30:58.910Z,22.94
2023-05-09T14:33:27.989Z,23.70
2023-05-09T14:35:56.469Z,23.97
2023-05-09T14:38:24.752Z,22.40
2023-05-09T14:40:53.427Z,21.46
2023-05-09T14:43:24.313Z,21.25
2023-05-09T14:45:52.918Z,22.00
2023-05-09T14:48:21.251Z,21.03
2023-05-09T14:50:53.111Z,21.22
2023-05-09T14:53:22.546Z,22.11
2023-05-09T14:55:50.890Z,22.74
2023-05-09T14:58:19.400Z,23.74
2023-05-09T15:00:49.440Z,24.33
2023-05-09T15:03:17.962Z,24.73
2023-05-09T15:05:46.376Z,25.16
2023-05-09T15:08:15.490Z,24.21
2023-05-09T15:10:45.476Z,24.42
2023-05-09T15:13:16.902Z,23.67
2023-05-09T15:15:45.549Z,23.47
2023-05-09T15:18:16.998Z,23.99
2023-05-09T15:20:45.643Z,24.34
2023-05-09T15:23:14.163Z,24.23
2023-05-09T15:25:43.286Z,23.65
2023-05-09T15:28:11.972Z,23.72
2023-05-09T15:30:41.669Z,23.00
2023-05-09T15:33:10.109Z,22.60
2023-05-09T15:35:40.102Z,22.19
2023-05-09T15:38:12.080Z,22.16
2023-05-09T15:40:41.352Z,21.83
2023-05-09T15:43:09.671Z,21.76
2023-05-09T15:45:45.156Z,21.83
2023-05-09T15:48:14.257Z,21.17
2023-05-09T15:50:44.719Z,21.30
2023-05-09T15:53:13.139Z,21.48
2023-05-09T15:55:42.781Z,21.05
2023-05-09T15:58:11.295Z,21.68
2023-05-09T16:00:40.799Z,21.53
2023-05-09T16:03:09.564Z,22.03
2023-05-09T16:05:40.799Z,21.39
2023-05-09T16:08:11.151Z,22.14
2023-05-09T16:10:39.684Z,22.52
2023-05-09T16:13:08.314Z,23.18
2023-05-09T16:15:37.170Z,22.17
2023-05-09T16:18:05.569Z,22.55
2023-05-09T16:20:33.925Z,23.16
2023-05-09T16:23:05.608Z,22.70
2023-05-09T16:25:35.617Z,22.97
2023-05-09T16:28:04.971Z,22.69
2023-05-09T16:30:33.379Z,22.80
2023-05-09T16:33:01.824Z,21.91
2023-05-09T16:35:30.591Z,21.62
2023-05-09T16:37:58.912Z,21.17
2023-05-09T16:40:27.261Z,21.04
2023-05-09T16:42:57.402Z,20.64
2023-05-09T16:45:29.106Z,19.80
2023-05-09T16:47:58.921Z,19.87
2023-05-09T16:50:28.833Z,20.09
2023-05-09T16:52:57.151Z,19.64
2023-05-09T16:55:26.796Z,19.94
2023-05-09T16:57:55.229Z,19.61
2023-05-09T17:00:25.032Z,19.77
2023-05-09T17:02:53.791Z,19.09
2023-05-09T17:05:22.473Z,19.52
2023-05-09T17:07:50.795Z,19.19
2023-05-09T17:10:19.384Z,19.49
2023-05-09T17:12:47.753Z,19.50
2023-05-09T17:15:16.052Z,19.24
2023-05-09T17:17:47.387Z,19.69
2023-05-09T17:20:15.993Z,19.66
2023-05-09T17:22:44.789Z,19.49
2023-05-09T17:25:13.092Z,19.58
2023-05-09T17:27:42.689Z,19.62
2023-05-09T17:30:11.505Z,19.19
2023-05-09T17:32:41.816Z,19.40
2023-05-09T17:35:12.373Z,19.36
2023-05-09T17:37:41.267Z,19.22
2023-05-09T17:40:10.368Z,19.00
2023-05-09T17:42:39.182Z,18.89
2023-05-09T17:45:09.306Z,18.69
2023-05-09T17:47:38.378Z,18.74
2023-05-09T17:50:07.171Z,18.63
2023-05-09T17:52:37.182Z,18.49
2023-05-09T17:55:05.949Z,18.47
2023-05-09T17:57:34.286Z,18.50
2023-05-09T18:00:02.970Z,18.62
2023-05-09T18:02:41.753Z,18.45
2023-05-09T18:05:11.134Z,18.32
2023-05-09T18:07:41.203Z,18.18
2023-05-09T18:10:10.170Z,18.27
2023-05-09T18:12:38.796Z,18.08
2023-05-09T18:15:07.874Z,17.84
2023-05-09T18:17:36.291Z,17.63
2023-05-09T18:20:06.059Z,17.63
2023-05-09T18:22:34.387Z,17.92
2023-05-09T18:25:04.561Z,17.60
2023-05-09T18:27:33.552Z,17.59
2023-05-09T18:30:02.131Z,17.27
2023-05-09T18:32:30.694Z,17.46
2023-05-09T18:34:59.746Z,17.41
2023-05-09T18:37:28.115Z,17.24
2023-05-09T18:39:56.600Z,17.52
2023-05-09T18:42:27.171Z,16.67
2023-05-09T18:44:55.905Z,16.82
2023-05-09T18:47:24.631Z,16.69
2023-05-09T18:49:53.176Z,17.06
2023-05-09T18:52:23.053Z,16.94
2023-05-09T18:54:52.151Z,16.44
2023-05-09T18:57:21.222Z,16.25
2023-05-09T18:59:55.332Z,16.68
2023-05-09T19:02:32.187Z,16.54
2023-05-09T19:05:13.411Z,16.77
2023-05-09T19:07:44.528Z,16.25
2023-05-09T19:10:21.662Z,16.32
2023-05-09T19:12:50.614Z,16.39
2023-05-09T19:15:23.794Z,16.25
2023-05-09T19:17:54.098Z,16.39
2023-05-09T19:20:25.478Z,15.99
2023-05-09T19:22:54.768Z,16.20
2023-05-09T19:25:23.677Z,15.85
2023-05-09T19:27:52.696Z,16.39
2023-05-09T19:30:23.701Z,16.16
2023-05-09T19:32:54.049Z,16.17
2023-05-09T19:35:27.157Z,16.07
2023-05-09T19:37:56.347Z,16.32
2023-05-09T19:40:26.449Z,16.10
2023-05-09T19:42:56.367Z,15.91
2023-05-09T19:45:27.161Z,15.65
2023-05-09T19:47:56.806Z,15.79
2023-05-09T19:50:27.025Z,15.59
2023-05-09T19:52:57.223Z,15.94
2023-05-09T19:55:26.497Z,15.95
2023-05-09T19:57:55.370Z,15.77
2023-05-09T20:00:26.225Z,15.84
2023-05-09T20:02:56.248Z,15.67
2023-05-09T20:08:11.553Z,15.84
2023-05-09T20:10:40.694Z,15.53
2023-05-09T20:13:09.795Z,15.64
2023-05-09T20:15:39.526Z,15.49
2023-05-09T20:18:10.331Z,15.66
2023-05-09T20:20:39.732Z,15.40
2023-05-09T20:23:08.967Z,15.53
2023-05-09T20:25:37.858Z,15.68
2023-05-09T20:28:07.210Z,15.43
2023-05-09T20:30:39.399Z,15.40
2023-05-09T20:33:14.337Z,15.33
2023-05-09T20:35:44.465Z,15.21
2023-05-09T20:38:14.085Z,15.25
2023-05-09T20:40:44.374Z,14.98
2023-05-09T20:43:13.632Z,15.15
2023-05-09T20:45:43.693Z,15.30
2023-05-09T20:48:14.127Z,15.16
2023-05-09T20:50:43.046Z,14.93
2023-05-09T20:53:11.586Z,15.03
2023-05-09T20:55:39.888Z,15.08
2023-05-09T20:58:09.074Z,14.88
2023-05-09T21:00:37.369Z,14.98
2023-05-09T21:03:05.768Z,14.69
2023-05-09T21:05:35.843Z,14.70
2023-05-09T21:08:04.219Z,15.04
2023-05-09T21:10:32.614Z,15.04
2023-05-09T21:13:01.207Z,14.73
2023-05-09T21:15:29.574Z,14.73
2023-05-09T21:17:57.901Z,14.47
2023-05-09T21:20:26.764Z,14.65
2023-05-09T21:22:56.518Z,14.75
2023-05-09T21:25:24.944Z,14.90
2023-05-09T21:27:53.506Z,14.92
2023-05-09T21:30:21.767Z,14.25
2023-05-09T21:32:51.169Z,14.28
2023-05-09T21:35:26.067Z,14.23
2023-05-09T21:37:56.402Z,14.34
2023-05-09T21:40:26.339Z,14.35
2023-05-09T21:42:54.656Z,14.61
2023-05-09T21:45:22.983Z,14.31
2023-05-09T21:47:51.821Z,14.60
2023-05-09T21:50:20.446Z,14.40
2023-05-09T21:52:48.806Z,14.20
2023-05-09T21:55:17.307Z,14.37
2023-05-09T21:57:50.218Z,14.17
2023-05-09T22:00:20.316Z,14.07
2023-05-09T22:02:49.029Z,14.19
2023-05-09T22:05:17.987Z,14.52
2023-05-09T22:07:46.319Z,14.32
2023-05-09T22:10:18.212Z,14.38
2023-05-09T22:12:46.727Z,14.51
2023-05-09T22:15:21.936Z,14.57
2023-05-09T22:17:51.859Z,14.63
2023-05-09T22:20:21.168Z,14.68
2023-05-09T22:22:49.518Z,14.80
2023-05-09T22:25:17.912Z,14.97
2023-05-09T22:27:46.459Z,14.47
2023-05-09T22:30:16.826Z,14.61
2023-05-09T22:32:45.885Z,14.79
2023-05-09T22:35:16.785Z,14.88
2023-05-09T22:37:45.115Z,14.91
2023-05-09T22:40:15.477Z,14.89
2023-05-09T22:42:44.259Z,14.91
2023-05-09T22:45:12.575Z,14.44
2023-05-09T22:47:42.342Z,14.57
2023-05-09T22:50:11.151Z,14.74
2023-05-09T22:52:39.528Z,14.72
2023-05-09T22:55:08.404Z,15.04
2023-05-09T22:57:37.155Z,14.48
2023-05-09T23:00:06.249Z,14.47
2023-05-09T23:02:34.878Z,14.54
2023-05-09T23:05:05.117Z,14.38
2023-05-09T23:07:33.725Z,14.44
2023-05-09T23:10:02.141Z,14.21
2023-05-09T23:12:30.796Z,14.22
2023-05-09T23:14:59.258Z,13.92
2023-05-09T23:17:27.675Z,13.90
2023-05-09T23:19:56.282Z,14.21
2023-05-09T23:22:26.484Z,13.92
2023-05-09T23:24:54.847Z,14.24
2023-05-09T23:27:23.462Z,14.25
2023-05-09T23:29:51.766Z,14.73
2023-05-09T23:32:20.092Z,14.92
2023-05-09T23:34:48.706Z,14.85
2023-05-09T23:37:17.293Z,14.87
2023-05-09T23:39:46.930Z,14.72
2023-05-09T23:42:15.618Z,14.79
2023-05-09T23:44:43.910Z,14.83
2023-05-09T23:47:12.230Z,14.88
2023-05-09T23:49:43.240Z,15.14
2023-05-09T23:52:11.614Z,14.98
2023-05-09T23:54:40.451Z,15.04
2023-05-09T23:57:10.460Z,14.69
2023-05-09T23:59:42.645Z,14.44
